• Join FlightAware (Why Join?)
  • Login
  • US Flag 
12:35PM EDT


 

Airport Tracker/Info


-or-


 

Live Flight TrackerFlight Track Log ✈ SWA580 ✈ 03-May-2013 ✈ KSTL - KHOU

Flight Track Log - Related Links

Times and Time Zones

All times are in EDT time to prevent confusion due to time zone crossing. See the SWA580 flight status page for this flight to view local times or setup timezone preferences in your user account.

Time Position Orientation Groundspeed Altitude Reporting Facility
EDT Latitude Longitude Course Direction KTS MPH feet Rate Location/Type
05:12PM 38.7264 -90.5025 223° Southwest 240 276 8,200  Level Kansas City Center
05:13PM 38.6619 -90.5342 201° Southwest 250 288 11,600 2,940 Climbing Kansas City Center
05:14PM 38.5867 -90.5719 201° Southwest 285 328 14,300 2,880 Climbing Kansas City Center
05:15PM 38.4853 -90.6225 201° Southwest 323 372 17,600 3,000 Climbing Kansas City Center
05:16PM 38.2539 -90.6795 218° Southwest  Level FlightAware Approximate
05:16PM 38.3911 -90.6681 201° Southwest 345 397 20,600  Level Kansas City Center
05:17PM 38.2958 -90.7158 201° Southwest 358 412 23,400 2,400 Climbing Kansas City Center
05:18PM 38.1969 -90.7642 201° Southwest 369 425 25,600 1,980 Climbing Kansas City Center
05:19PM 38.0953 -90.8097 199° South 379 436 27,500 1,740 Climbing Kansas City Center
05:20PM 37.9861 -90.8511 197° South 398 458 29,200 1,980 Climbing Kansas City Center
05:21PM 37.8525 -90.9039 197° South 415 478 31,700 2,160 Climbing Kansas City Center
05:22PM 37.7422 -90.9481 198° South 416 479 33,700 1,860 Climbing Kansas City Center
05:24PM 37.6342 -90.9903 197° South 411 473 35,600 2,100 Climbing Kansas City Center
05:25PM 37.5208 -91.0375 198° South 404 465 38,100 1,620 Climbing Kansas City Center
05:26PM 37.4200 -91.0806 199° South 387 445 39,000 720 Climbing Kansas City Center
05:27PM 37.3144 -91.1244 198° South 392 451 39,600 420 Climbing Kansas City Center
05:28PM 37.2047 -91.1681 198° South 405 466 39,900 180 Climbing Kansas City Center
05:29PM 37.0919 -91.2167 199° South 419 482 40,000 60 Climbing Kansas City Center
05:29PM 37.0206 -91.2428 196° South 419 482 40,000  Level Memphis Center
05:30PM 36.9097 -91.2908 199° South 426 490 40,000  Level Memphis Center
05:31PM 36.7947 -91.3389 199° South 426 490 40,000  Level Memphis Center
05:32PM 36.6817 -91.3867 199° South 426 490 40,000  Level Memphis Center
05:33PM 36.5647 -91.4317 197° South 431 496 40,000  Level Memphis Center
05:34PM 36.4497 -91.4817 199° South 431 496 40,000  Level Memphis Center
05:35PM 36.3367 -91.5267 198° South 437 503 40,000  Level Memphis Center
05:36PM 36.2217 -91.5739 198° South 437 503 40,000  Level Memphis Center
05:37PM 36.1106 -91.6158 197° South 432 497 40,000  Level Memphis Center
05:38PM 36.0017 -91.6603 198° South 421 484 40,000  Level Memphis Center
05:39PM 35.8950 -91.7022 198° South 414 476 40,000  Level Memphis Center
05:40PM 35.7881 -91.7467 199° South 409 471 40,000  Level Memphis Center
05:41PM 35.6772 -91.7881 197° South 414 476 40,000  Level Memphis Center
05:42PM 35.5703 -91.8322 199° South 414 476 40,000  Level Memphis Center
05:43PM 35.4592 -91.8736 197° South 414 476 40,000  Level Memphis Center
05:44PM 35.3503 -91.9175 198° South 414 476 40,000  Level Memphis Center
05:45PM 35.2369 -91.9611 197° South 419 482 40,000  Level Memphis Center
05:46PM 35.1281 -92.0022 197° South 419 482 40,000  Level Memphis Center
05:47PM 35.0169 -92.0458 198° South 426 490 40,000  Level Memphis Center
05:48PM 34.9014 -92.0942 199° South 426 490 40,000  Level Memphis Center
05:49PM 34.7881 -92.1372 197° South 426 490 40,000  Level Memphis Center
05:50PM 34.6750 -92.1778 196° South 426 490 40,000  Level Memphis Center
05:51PM 34.5536 -92.2031 190° South 432 497 40,000  Level Memphis Center
05:52PM 34.4322 -92.2256 189° South 438 504 40,000  Level Memphis Center
05:53PM 34.3150 -92.2483 189° South 438 504 40,000  Level Memphis Center
05:54PM 34.1936 -92.2731 190° South 438 504 40,000  Level Memphis Center
05:55PM 34.0617 -92.2953 188° South 438 504 40,000  Level Memphis Center
05:57PM 33.8164 -92.3436 189° South 428 493 40,000  Level Fort Worth Center
05:58PM 33.6961 -92.3631 188° South 433 498 40,000  Level Fort Worth Center
05:59PM 33.5761 -92.3875 190° South 433 498 40,000  Level Fort Worth Center
06:00PM 33.4622 -92.4064 188° South 433 498 40,000  Level Fort Worth Center
06:01PM 33.3419 -92.4283 189° South 433 498 40,000  Level Fort Worth Center
06:02PM 33.2217 -92.4497 188° South 433 498 40,000  Level Fort Worth Center
06:03PM 33.1058 -92.4736 190° South 433 498 40,000  Level Fort Worth Center
06:04PM 32.9897 -92.4950 189° South 433 498 40,000  Level Fort Worth Center
06:05PM 32.8736 -92.5136 188° South 428 493 40,000  Level Fort Worth Center
06:06PM 32.7597 -92.5347 189° South 423 487 40,000  Level Fort Worth Center
06:09PM 32.5089 -92.5814 189° South 420 483 40,000  Level Houston Center
06:10PM 32.3914 -92.6019 188° South 424 488 40,000  Level Houston Center
06:11PM 32.2764 -92.6244 189° South 420 483 40,000  Level Houston Center
06:12PM 32.1594 -92.6439 188° South 421 484 40,000  Level Houston Center
06:13PM 32.0217 -92.6689 189° South 419 482 40,000  Level Houston Center
06:14PM 31.9286 -92.7333 210° Southwest 402 463 40,000  Level Houston Center
06:15PM 31.8547 -92.8247 226° Southwest 387 445 40,000  Level Houston Center
06:16PM 31.7831 -92.9186 228° Southwest 387 445 40,000  Level Houston Center
06:17PM 31.7089 -93.0128 227° Southwest 390 449 40,000  Level Houston Center
06:18PM 31.6208 -93.1242 227° Southwest 390 449 40,000  Level Houston Center
06:19PM 31.5461 -93.2178 227° Southwest 392 451 40,000  Level Houston Center
06:20PM 31.4761 -93.3069 227° Southwest 397 457 40,000  Level Houston Center
06:21PM 31.3869 -93.4206 227° Southwest 396 456 40,000  Level Houston Center
06:22PM 31.3117 -93.5125 226° Southwest 395 455 40,000  Level Houston Center
06:23PM 31.2481 -93.5936 227° Southwest 393 452 40,000  Level Houston Center
06:24PM 31.1586 -93.7042 227° Southwest 390 449 40,000 -300 Level Houston Center
06:25PM 31.0847 -93.7967 227° Southwest 391 450 39,400 -1,140 Descending Houston Center
06:26PM 31.0125 -93.8875 227° Southwest 385 443 37,700 -2,160 Descending Houston Center
06:27PM 30.9403 -93.9753 226° Southwest 379 436 35,000 -2,760 Descending Houston Center
06:28PM 30.8667 -94.0656 226° Southwest 385 443 32,000 -2,880 Descending Houston Center
06:29PM 30.7756 -94.1758 226° Southwest 393 452 29,100 -2,520 Descending Houston Center
06:30PM 30.7033 -94.2650 227° Southwest 386 444 26,800 -2,220 Descending Houston Center
06:31PM 30.6339 -94.3494 226° Southwest 368 423 24,600 -2,340 Descending Houston Center
06:32PM 30.6019 -94.3867 225° Southwest 351 404 23,600 -2,340 Descending Houston Center
06:32PM 30.5703 -94.4272 228° Southwest 348 400 22,600 -2,100 Descending Houston Center
06:33PM 30.5044 -94.5061 226° Southwest 340 391 20,400 -1,980 Descending Houston Center
06:34PM 30.4403 -94.6025 232° Southwest 335 386 18,200 -2,100 Descending Houston Center
06:35PM 30.3869 -94.6839 233° Southwest 337 388 16,100 -2,340 Descending Houston Center
06:37PM 30.3244 -94.7833 234° Southwest 328 377 13,400 -2,100 Descending Houston Center
06:37PM 30.2772 -94.8528 232° Southwest 318 366 11,900 -1,560 Descending Houston Center
06:38PM 30.2711 -94.8642 238° Southwest 319 367 11,800 -780 Descending Houston Center
06:39PM 30.2169 -94.9486 233° Southwest 326 375 10,900 -960 Descending Houston Center
06:39PM 30.1656 -95.0264 233° Southwest 337 388 10,100 -900 Descending Houston Center
06:40PM 30.1619 -95.0353 245° Southwest 335 386 10,000 -120 Descending Houston Center
06:40PM 30.0897 -95.0914 214° Southwest 358 412 10,000  Level Houston Center
06:41PM 30.0642 -95.1017 199° South 346 398 10,000  Level Houston Center
06:41PM 29.9947 -95.1322 201° Southwest 343 395 10,000  Level Houston Center
06:42PM 29.9742 -95.1400 198° South 343 395 10,000 -1,020 Level Houston Center
06:42PM 29.9158 -95.1658 201° Southwest 298 343 9,000 -1,260 Descending Houston Center
06:43PM 29.8972 -95.1733 199° South 301 346 8,700 -1,260 Descending Houston Center
06:43PM 29.8350 -95.2000 200° South 304 350 7,700 -1,200 Descending Houston Center
06:44PM 29.8178 -95.2075 201° Southwest 304 350 7,500 -600 Descending Houston Center
06:44PM 29.7664 -95.2300 201° Southwest 270 311 7,200 -540 Descending Houston Center
06:45PM 29.7464 -95.2378 199° South 281 323 7,000 -840 Descending Houston Center
06:45PM 29.6978 -95.2142 157° South 265 305 6,400 -900 Descending Houston Center
06:46PM 29.6747 -95.1889 136° Southeast 262 302 6,100 -600 Descending Houston Center
06:46PM 29.6442 -95.1583 139° Southeast 234 269 5,800 -540 Descending Houston Center
06:47PM 29.6333 -95.1456 134° Southeast 247 284 5,600 -1,020 Descending Houston Center
06:48PM 29.5953 -95.1064 138° Southeast 224 258 4,700 -1,380 Descending Houston Center
06:48PM 29.5775 -95.0853 134° Southeast 230 265 4,200 -720 Descending Houston Center
06:49PM 29.5450 -95.0622 148° Southeast 212 244 4,000 -420 Descending Houston Center
06:49PM 29.5250 -95.0617 179° South 221 254 3,800 -780 Descending Houston Center
06:49PM 29.4928 -95.0661 187° South 201 231 3,300 -780 Descending Houston Center
06:50PM 29.4806 -95.0833 231° Southwest 202 232 3,000 -300 Descending Houston Center
06:51PM 29.4986 -95.1064 312° West 157 181 3,000  Level Houston Center
06:51PM 29.5111 -95.1200 317° Northwest 173 199 3,000 -420 Level Houston Center
06:52PM 29.5294 -95.1433 312° West 159 183 2,600 -720 Descending Houston Center
06:52PM 29.5428 -95.1581 316° Northwest 166 191 2,300 -540 Descending Houston Center
06:53PM 29.5603 -95.1806 312° West 160 184 2,100 -540 Descending Houston Center
06:53PM 29.5744 -95.1953 318° Northwest 162 186 1,800 -840 Descending Houston Center
06:54PM 29.5908 -95.2153 313° West 150 173 1,300 -780 Descending Houston Center
06:54PM 29.6025 -95.2286 315° West 154 177 1,000 -660 Descending Houston Center
06:55PM 29.6167 -95.2458 313° West 123 142 600 -720 Descending Houston Center
06:55PM 29.6258 -95.2572 313° West 137 158 300 -660 Descending Houston Center